Time;durP1;ratioP1;P1;durP2;ratioP2;P2;SDS_P1;SDS_P2;PMS_P1;PMS_P2;Temp;Humidity;BMP_temperature;BMP_pressure;BME280_temperature;BME280_humidity;BME280_pressure;Samples;Min_cycle;Max_cycle;Signal;HPM_P1;HPM_P2
2023/07/31 00:00:51;;;;;;;9.07;4.78;;;;;;;;;;5056460;28;20016;-66
2023/07/31 00:03:16;;;;;;;13.55;5.47;;;;;;;;;;5058665;28;20032;-66
2023/07/31 00:05:41;;;;;;;10.65;5.07;;;;;;;;;;5059143;28;21109;-66
2023/07/31 00:08:06;;;;;;;11.07;5.13;;;;;;;;;;5087994;28;20081;-66
2023/07/31 00:10:33;;;;;;;13.43;4.83;;;;;;;;;;5095654;28;20498;-66
2023/07/31 00:12:58;;;;;;;11.07;4.90;;;;;;;;;;5092558;28;20278;-67
2023/07/31 00:15:23;;;;;;;10.50;5.00;;;;;;;;;;5111246;28;20157;-66
2023/07/31 00:17:49;;;;;;;10.00;5.30;;;;;;;;;;5111064;28;20062;-66
2023/07/31 00:20:14;;;;;;;9.87;4.87;;;;;;;;;;5098730;28;20072;-66
2023/07/31 00:22:39;;;;;;;9.93;5.20;;;;;;;;;;5111131;28;20808;-66
2023/07/31 00:25:06;;;;;;;12.07;5.32;;;;;;;;;;5055462;28;20266;-66
2023/07/31 00:27:31;;;;;;;14.23;4.88;;;;;;;;;;5047484;28;20081;-68
2023/07/31 00:29:56;;;;;;;10.73;4.97;;;;;;;;;;5047287;28;20020;-67
2023/07/31 00:32:22;;;;;;;10.07;4.97;;;;;;;;;;5107945;28;20405;-67
2023/07/31 00:34:47;;;;;;;9.45;4.45;;;;;;;;;;5101948;28;20644;-67
2023/07/31 00:37:12;;;;;;;13.45;5.45;;;;;;;;;;5092333;28;20039;-66
2023/07/31 00:39:37;;;;;;;13.80;5.03;;;;;;;;;;5097560;28;20181;-66
2023/07/31 00:42:03;;;;;;;11.68;4.80;;;;;;;;;;5090890;28;20016;-66
2023/07/31 00:44:28;;;;;;;12.32;5.43;;;;;;;;;;5100050;28;20543;-66
2023/07/31 00:46:53;;;;;;;12.00;5.30;;;;;;;;;;5111120;28;20871;-66
2023/07/31 00:49:20;;;;;;;11.48;5.07;;;;;;;;;;5103119;28;20695;-66
2023/07/31 00:51:45;;;;;;;11.65;5.18;;;;;;;;;;5090981;28;20028;-66
2023/07/31 00:54:10;;;;;;;12.77;5.20;;;;;;;;;;5103280;28;20417;-65
2023/07/31 00:56:36;;;;;;;15.55;5.15;;;;;;;;;;5091401;28;20107;-66
2023/07/31 00:59:01;;;;;;;11.07;4.90;;;;;;;;;;5091323;28;20038;-66
2023/07/31 01:01:27;;;;;;;11.60;5.43;;;;;;;;;;5091430;28;20085;-66
2023/07/31 01:03:55;;;;;;;13.75;5.22;;;;;;;;;;5096114;28;20020;-67
2023/07/31 01:06:26;;;;;;;19.98;5.95;;;;;;;;;;5096488;28;20504;-66
2023/07/31 01:08:54;;;;;;;12.13;5.55;;;;;;;;;;5090595;28;20111;-66
2023/07/31 01:11:25;;;;;;;10.75;5.07;;;;;;;;;;5095475;28;20046;-67
2023/07/31 01:13:51;;;;;;;10.85;5.43;;;;;;;;;;5104455;28;20028;-67
2023/07/31 01:16:16;;;;;;;14.60;5.50;;;;;;;;;;5101262;28;20066;-67
2023/07/31 01:18:41;;;;;;;8.90;4.78;;;;;;;;;;5104283;28;20035;-68
2023/07/31 01:21:15;;;;;;;11.40;6.15;;;;;;;;;;5112810;28;20024;-67
2023/07/31 01:23:47;;;;;;;13.05;5.63;;;;;;;;;;5113417;28;20477;-67
2023/07/31 01:26:16;;;;;;;11.52;5.28;;;;;;;;;;5112519;28;20095;-67
2023/07/31 01:29:01;;;;;;;9.40;5.72;;;;;;;;;;5109385;28;20020;-67
2023/07/31 01:31:28;;;;;;;10.82;5.40;;;;;;;;;;5106021;28;20062;-67
2023/07/31 01:33:54;;;;;;;10.70;5.43;;;;;;;;;;5106275;28;20035;-67
2023/07/31 01:36:20;;;;;;;9.98;5.32;;;;;;;;;;5111249;28;20030;-67
2023/07/31 01:38:45;;;;;;;10.80;5.07;;;;;;;;;;5108186;28;20024;-66
2023/07/31 01:41:10;;;;;;;10.43;4.97;;;;;;;;;;5116521;28;20046;-67
2023/07/31 01:43:35;;;;;;;9.93;5.13;;;;;;;;;;5110570;28;20619;-67
2023/07/31 01:46:00;;;;;;;10.27;5.07;;;;;;;;;;5108016;28;20288;-67
2023/07/31 01:48:26;;;;;;;8.30;4.50;;;;;;;;;;5104485;28;20289;-67
2023/07/31 01:50:51;;;;;;;10.45;5.15;;;;;;;;;;5117408;28;20273;-67
2023/07/31 01:53:16;;;;;;;10.57;5.03;;;;;;;;;;5108436;28;20484;-67
2023/07/31 01:55:42;;;;;;;11.97;5.60;;;;;;;;;;5117295;28;20046;-67
2023/07/31 01:58:07;;;;;;;10.10;5.07;;;;;;;;;;5110490;28;20273;-68
2023/07/31 02:00:32;;;;;;;8.47;5.20;;;;;;;;;;5117683;28;20063;-68
2023/07/31 02:02:59;;;;;;;9.97;4.90;;;;;;;;;;5111626;28;20682;-68
2023/07/31 02:05:24;;;;;;;8.20;4.97;;;;;;;;;;5107250;28;20292;-67
2023/07/31 02:07:49;;;;;;;10.10;5.73;;;;;;;;;;5108031;28;20019;-67
2023/07/31 02:10:15;;;;;;;11.93;5.45;;;;;;;;;;5099447;28;20277;-68
2023/07/31 02:12:40;;;;;;;14.18;5.20;;;;;;;;;;5104374;28;20505;-68
2023/07/31 02:15:05;;;;;;;10.02;5.40;;;;;;;;;;5099383;28;20032;-69
2023/07/31 02:17:31;;;;;;;7.63;4.20;;;;;;;;;;5101694;28;20072;-67
2023/07/31 02:19:56;;;;;;;14.10;5.88;;;;;;;;;;5098633;28;20465;-69
2023/07/31 02:22:21;;;;;;;9.23;5.35;;;;;;;;;;5110620;28;20027;-68
2023/07/31 02:24:46;;;;;;;8.38;4.68;;;;;;;;;;5109267;28;20036;-69
2023/07/31 02:27:12;;;;;;;12.07;5.60;;;;;;;;;;5096857;28;20036;-69
2023/07/31 02:29:37;;;;;;;11.00;5.68;;;;;;;;;;5106647;28;20285;-69
2023/07/31 02:32:02;;;;;;;13.15;5.25;;;;;;;;;;5106272;28;20474;-69
2023/07/31 02:34:27;;;;;;;8.70;5.05;;;;;;;;;;5101580;28;20020;-69
2023/07/31 02:36:53;;;;;;;9.20;5.40;;;;;;;;;;5112680;28;20016;-69
2023/07/31 02:39:18;;;;;;;11.80;5.63;;;;;;;;;;5101871;28;20276;-69
2023/07/31 02:41:43;;;;;;;10.83;5.87;;;;;;;;;;5112499;28;20308;-69
2023/07/31 02:44:10;;;;;;;11.55;5.93;;;;;;;;;;5102249;28;20275;-68
2023/07/31 02:46:35;;;;;;;9.38;5.50;;;;;;;;;;5103973;28;20385;-69
2023/07/31 02:49:00;;;;;;;10.13;5.78;;;;;;;;;;5104010;28;20095;-69
2023/07/31 02:51:26;;;;;;;9.10;4.97;;;;;;;;;;5110138;28;20030;-69
2023/07/31 02:53:51;;;;;;;12.23;5.90;;;;;;;;;;5083809;28;20444;-68
2023/07/31 02:56:16;;;;;;;9.00;5.53;;;;;;;;;;5104093;28;20038;-69
2023/07/31 02:58:41;;;;;;;10.67;5.67;;;;;;;;;;5101603;28;20020;-69
2023/07/31 03:01:07;;;;;;;8.63;5.53;;;;;;;;;;5105994;28;20282;-69
2023/07/31 03:03:32;;;;;;;10.70;5.37;;;;;;;;;;5098687;28;20058;-68
2023/07/31 03:05:57;;;;;;;7.27;4.97;;;;;;;;;;5102949;28;20284;-68
2023/07/31 03:08:22;;;;;;;10.43;5.80;;;;;;;;;;5099380;28;20269;-68
2023/07/31 03:10:48;;;;;;;12.93;5.53;;;;;;;;;;5099499;28;20024;-68
2023/07/31 03:13:13;;;;;;;9.90;5.87;;;;;;;;;;5097495;28;20034;-68
2023/07/31 03:15:41;;;;;;;8.80;5.40;;;;;;;;;;5111344;28;20768;-68
2023/07/31 03:18:06;;;;;;;10.25;5.35;;;;;;;;;;5103083;28;20281;-68
2023/07/31 03:20:32;;;;;;;11.30;5.67;;;;;;;;;;5107649;28;20024;-70
2023/07/31 03:22:57;;;;;;;10.60;5.50;;;;;;;;;;5109978;28;20269;-69
2023/07/31 03:25:22;;;;;;;13.75;5.85;;;;;;;;;;5108721;28;20030;-68
2023/07/31 03:27:48;;;;;;;10.50;5.90;;;;;;;;;;5110594;28;20388;-68
2023/07/31 03:30:13;;;;;;;9.03;6.17;;;;;;;;;;5111339;28;20028;-67
2023/07/31 03:32:38;;;;;;;11.32;5.32;;;;;;;;;;5109791;28;20343;-67
2023/07/31 03:35:05;;;;;;;7.20;4.88;;;;;;;;;;5109987;28;20020;-67
2023/07/31 03:37:30;;;;;;;8.85;4.97;;;;;;;;;;5107783;28;20028;-68
2023/07/31 03:39:55;;;;;;;10.73;5.20;;;;;;;;;;5108980;28;20152;-68
2023/07/31 03:42:21;;;;;;;10.98;5.43;;;;;;;;;;5095655;28;20024;-68
2023/07/31 03:44:46;;;;;;;9.30;5.63;;;;;;;;;;5092325;28;20032;-68
2023/07/31 03:47:11;;;;;;;10.43;6.03;;;;;;;;;;5098366;28;20265;-68
2023/07/31 03:49:36;;;;;;;7.97;5.72;;;;;;;;;;5112209;28;20024;-69
2023/07/31 03:52:02;;;;;;;9.20;5.67;;;;;;;;;;5106019;28;20458;-68
2023/07/31 03:54:27;;;;;;;9.15;6.07;;;;;;;;;;5112007;28;20292;-68
2023/07/31 03:56:52;;;;;;;8.60;6.20;;;;;;;;;;5111630;28;20031;-68
2023/07/31 03:59:17;;;;;;;13.50;6.30;;;;;;;;;;5112017;28;20269;-67
2023/07/31 04:01:43;;;;;;;8.33;6.07;;;;;;;;;;5105060;28;20294;-68
2023/07/31 04:04:08;;;;;;;9.32;5.93;;;;;;;;;;5105744;28;20304;-68
2023/07/31 04:06:33;;;;;;;10.90;5.50;;;;;;;;;;5100506;28;20019;-67
2023/07/31 04:08:58;;;;;;;8.10;5.37;;;;;;;;;;5098674;28;20273;-68
2023/07/31 04:11:23;;;;;;;8.00;4.63;;;;;;;;;;5091344;28;20752;-67
2023/07/31 04:13:49;;;;;;;9.13;4.85;;;;;;;;;;5108343;28;20740;-69
2023/07/31 04:16:14;;;;;;;8.53;5.47;;;;;;;;;;5103063;28;20024;-70
2023/07/31 04:18:39;;;;;;;10.55;5.38;;;;;;;;;;5100998;28;20265;-69
2023/07/31 04:21:04;;;;;;;8.47;4.83;;;;;;;;;;5104006;28;20020;-69
2023/07/31 04:23:30;;;;;;;6.63;4.90;;;;;;;;;;5104148;28;20744;-69
2023/07/31 04:25:55;;;;;;;6.27;5.30;;;;;;;;;;5109951;28;20639;-68
2023/07/31 04:28:20;;;;;;;6.70;4.88;;;;;;;;;;5107969;28;20334;-68
2023/07/31 04:30:45;;;;;;;6.87;4.87;;;;;;;;;;5111940;28;20054;-68
2023/07/31 04:33:11;;;;;;;7.43;4.50;;;;;;;;;;5095493;28;20301;-68
2023/07/31 04:35:36;;;;;;;8.05;4.80;;;;;;;;;;5091548;28;20282;-68
2023/07/31 04:38:01;;;;;;;6.03;4.47;;;;;;;;;;5091393;28;20035;-68
2023/07/31 04:40:26;;;;;;;9.27;4.30;;;;;;;;;;5092074;28;20285;-69
2023/07/31 04:42:52;;;;;;;8.27;5.07;;;;;;;;;;5092669;28;20278;-68
2023/07/31 04:45:17;;;;;;;7.63;4.03;;;;;;;;;;5108814;28;20821;-69
2023/07/31 04:47:42;;;;;;;11.60;4.00;;;;;;;;;;5092464;28;20282;-69
2023/07/31 04:50:08;;;;;;;10.07;4.60;;;;;;;;;;5045421;28;20282;-69
2023/07/31 04:52:33;;;;;;;7.50;4.35;;;;;;;;;;5048600;28;20032;-69
2023/07/31 04:54:58;;;;;;;7.15;4.90;;;;;;;;;;5078030;28;20055;-68
2023/07/31 04:57:23;;;;;;;8.80;5.07;;;;;;;;;;5105106;28;20046;-68
2023/07/31 04:59:49;;;;;;;7.60;4.33;;;;;;;;;;5100585;28;20019;-68
2023/07/31 05:02:14;;;;;;;8.57;4.87;;;;;;;;;;5110295;28;20278;-67
2023/07/31 05:04:39;;;;;;;6.13;4.27;;;;;;;;;;5111180;28;20318;-67
2023/07/31 05:07:04;;;;;;;8.23;4.40;;;;;;;;;;5107088;28;20379;-66
2023/07/31 05:09:30;;;;;;;7.85;5.38;;;;;;;;;;5093062;28;20383;-64
2023/07/31 05:11:55;;;;;;;8.27;5.22;;;;;;;;;;5106586;28;20034;-65
2023/07/31 05:14:20;;;;;;;7.30;4.50;;;;;;;;;;5102520;28;20028;-64
2023/07/31 05:16:46;;;;;;;8.27;5.18;;;;;;;;;;5104306;28;20277;-65
2023/07/31 05:19:11;;;;;;;9.93;5.93;;;;;;;;;;5098001;28;20381;-65
2023/07/31 05:21:36;;;;;;;6.20;5.10;;;;;;;;;;5109835;28;20023;-65
2023/07/31 05:24:01;;;;;;;8.00;5.40;;;;;;;;;;5110871;28;20030;-65
2023/07/31 05:26:27;;;;;;;7.18;4.93;;;;;;;;;;5109082;28;20077;-65
2023/07/31 05:28:52;;;;;;;10.90;6.60;;;;;;;;;;5066078;28;20015;-65
2023/07/31 05:31:17;;;;;;;7.85;5.72;;;;;;;;;;5060643;28;20575;-65
2023/07/31 05:33:43;;;;;;;8.77;5.43;;;;;;;;;;5055224;28;20035;-65
2023/07/31 05:36:09;;;;;;;8.35;5.88;;;;;;;;;;5084572;28;20454;-64
2023/07/31 05:38:34;;;;;;;12.15;4.90;;;;;;;;;;5100234;28;20039;-65
2023/07/31 05:40:59;;;;;;;8.90;5.80;;;;;;;;;;5099412;28;20027;-65
2023/07/31 05:43:24;;;;;;;9.03;5.47;;;;;;;;;;5096342;28;20586;-65
2023/07/31 05:45:51;;;;;;;15.67;5.67;;;;;;;;;;5102459;28;20618;-65
2023/07/31 05:48:16;;;;;;;9.93;5.80;;;;;;;;;;5093522;28;20277;-65
2023/07/31 05:50:42;;;;;;;9.07;6.10;;;;;;;;;;5091539;28;20104;-65
2023/07/31 05:53:08;;;;;;;9.25;5.95;;;;;;;;;;5090956;28;20704;-65
2023/07/31 05:55:33;;;;;;;8.48;5.20;;;;;;;;;;5099368;28;20047;-64
2023/07/31 05:57:58;;;;;;;9.60;5.97;;;;;;;;;;5109288;28;20028;-65
2023/07/31 06:00:24;;;;;;;9.63;5.80;;;;;;;;;;5102142;28;20145;-65
2023/07/31 06:02:49;;;;;;;9.30;5.43;;;;;;;;;;5103482;28;20289;-65
2023/07/31 06:05:15;;;;;;;8.88;4.82;;;;;;;;;;5095544;28;20108;-65
2023/07/31 06:07:40;;;;;;;12.43;5.32;;;;;;;;;;5111452;28;20029;-64
2023/07/31 06:10:06;;;;;;;8.27;5.15;;;;;;;;;;5098798;28;20085;-65
2023/07/31 06:12:31;;;;;;;9.40;5.00;;;;;;;;;;5094747;28;20020;-65
2023/07/31 06:14:56;;;;;;;8.95;5.15;;;;;;;;;;5092893;28;20038;-65
2023/07/31 06:17:22;;;;;;;10.70;5.43;;;;;;;;;;5099734;28;20051;-65
2023/07/31 06:19:47;;;;;;;9.65;5.30;;;;;;;;;;5101856;28;20339;-66
2023/07/31 06:22:12;;;;;;;10.40;5.07;;;;;;;;;;5099363;28;20016;-65
2023/07/31 06:24:38;;;;;;;11.35;6.05;;;;;;;;;;5101544;28;20297;-65
2023/07/31 06:27:03;;;;;;;10.18;6.32;;;;;;;;;;5093768;28;20023;-65
2023/07/31 06:29:29;;;;;;;11.27;4.97;;;;;;;;;;5094199;28;20119;-65
2023/07/31 06:31:54;;;;;;;7.80;5.03;;;;;;;;;;5093688;28;20023;-66
2023/07/31 06:34:19;;;;;;;9.85;5.25;;;;;;;;;;5093656;28;20031;-65
2023/07/31 06:36:45;;;;;;;10.47;4.87;;;;;;;;;;5108675;28;20055;-67
2023/07/31 06:39:10;;;;;;;6.85;5.00;;;;;;;;;;5101649;28;20274;-66
2023/07/31 06:41:35;;;;;;;8.63;5.23;;;;;;;;;;5102360;28;20028;-65
2023/07/31 06:44:00;;;;;;;8.43;4.70;;;;;;;;;;5099580;28;20271;-65
2023/07/31 06:46:26;;;;;;;8.57;4.90;;;;;;;;;;5104914;28;20357;-65
2023/07/31 06:48:51;;;;;;;9.20;4.70;;;;;;;;;;5105385;28;20759;-66
2023/07/31 06:51:16;;;;;;;9.27;4.88;;;;;;;;;;5109559;28;20026;-66
2023/07/31 06:53:44;;;;;;;11.10;4.78;;;;;;;;;;5112460;28;20430;-66
2023/07/31 06:56:10;;;;;;;5.78;4.88;;;;;;;;;;5097222;28;20380;-66
2023/07/31 06:58:35;;;;;;;6.93;4.73;;;;;;;;;;5065534;28;20443;-67
2023/07/31 07:01:00;;;;;;;8.97;5.20;;;;;;;;;;5108766;28;20613;-66
2023/07/31 07:03:25;;;;;;;14.15;5.70;;;;;;;;;;5109014;28;20278;-66
2023/07/31 07:05:51;;;;;;;7.60;5.05;;;;;;;;;;5108563;28;20012;-65
2023/07/31 07:08:17;;;;;;;10.13;5.35;;;;;;;;;;5108684;28;20030;-66
2023/07/31 07:10:42;;;;;;;9.05;5.38;;;;;;;;;;5098388;28;20120;-65
2023/07/31 07:13:07;;;;;;;9.95;4.22;;;;;;;;;;5113420;28;20535;-65
2023/07/31 07:15:33;;;;;;;8.30;5.45;;;;;;;;;;5110655;28;20042;-66
2023/07/31 07:17:58;;;;;;;8.90;5.55;;;;;;;;;;5111900;28;20104;-65
2023/07/31 07:20:24;;;;;;;13.23;4.93;;;;;;;;;;5106087;28;20073;-65
2023/07/31 07:22:49;;;;;;;11.82;5.25;;;;;;;;;;5106428;28;20451;-65
2023/07/31 07:25:14;;;;;;;9.70;5.18;;;;;;;;;;5108465;28;20069;-65
2023/07/31 07:27:40;;;;;;;8.57;5.90;;;;;;;;;;5110070;28;20034;-65
2023/07/31 07:30:05;;;;;;;7.82;5.07;;;;;;;;;;5108897;28;20028;-66
2023/07/31 07:32:30;;;;;;;8.45;5.22;;;;;;;;;;5105141;28;20039;-66
2023/07/31 07:34:56;;;;;;;13.68;6.15;;;;;;;;;;5103595;28;20031;-65
2023/07/31 07:37:21;;;;;;;8.88;5.47;;;;;;;;;;5077742;28;20923;-65
2023/07/31 07:39:47;;;;;;;8.45;5.63;;;;;;;;;;5067897;28;20031;-66
2023/07/31 07:42:12;;;;;;;12.88;5.35;;;;;;;;;;5100251;28;20028;-65
2023/07/31 07:44:37;;;;;;;9.73;5.93;;;;;;;;;;5092617;28;20017;-65
2023/07/31 07:47:02;;;;;;;10.67;5.70;;;;;;;;;;5105540;28;20266;-65
2023/07/31 07:49:28;;;;;;;9.88;5.22;;;;;;;;;;5103349;28;20262;-66
2023/07/31 07:51:53;;;;;;;11.63;5.30;;;;;;;;;;5108377;28;20459;-65
2023/07/31 07:54:20;;;;;;;9.18;4.70;;;;;;;;;;5092704;28;20297;-65
2023/07/31 07:56:45;;;;;;;7.70;5.05;;;;;;;;;;5093983;28;20035;-65
2023/07/31 07:59:10;;;;;;;6.73;4.60;;;;;;;;;;5093645;28;20024;-65
2023/07/31 08:01:35;;;;;;;7.10;4.60;;;;;;;;;;5100115;28;20269;-66
2023/07/31 08:04:01;;;;;;;7.80;4.07;;;;;;;;;;5108131;28;20261;-65
2023/07/31 08:06:26;;;;;;;7.38;4.90;;;;;;;;;;5101480;28;20024;-66
2023/07/31 08:08:51;;;;;;;9.15;4.55;;;;;;;;;;5108796;28;20103;-65
2023/07/31 08:11:16;;;;;;;8.80;5.13;;;;;;;;;;5100468;28;20427;-66
2023/07/31 08:13:42;;;;;;;6.35;4.38;;;;;;;;;;5105411;28;20297;-66
2023/07/31 08:16:07;;;;;;;9.37;4.97;;;;;;;;;;5106385;28;20415;-65
2023/07/31 08:18:32;;;;;;;8.20;5.28;;;;;;;;;;5110580;28;20716;-65
2023/07/31 08:20:58;;;;;;;10.75;5.20;;;;;;;;;;5102445;28;20122;-65
2023/07/31 08:23:23;;;;;;;6.60;4.85;;;;;;;;;;5110105;28;20382;-65
2023/07/31 08:25:50;;;;;;;9.18;5.53;;;;;;;;;;5107533;28;20225;-65
2023/07/31 08:28:16;;;;;;;9.25;4.90;;;;;;;;;;5104130;28;20447;-66
2023/07/31 08:30:41;;;;;;;7.60;5.35;;;;;;;;;;5095252;28;20012;-65
2023/07/31 08:33:07;;;;;;;8.63;5.47;;;;;;;;;;5106213;28;20027;-65
2023/07/31 08:35:32;;;;;;;7.03;4.60;;;;;;;;;;5104635;28;20378;-64
2023/07/31 08:37:57;;;;;;;11.25;5.30;;;;;;;;;;5107636;28;20015;-66
2023/07/31 08:40:23;;;;;;;7.28;5.28;;;;;;;;;;5107494;28;20019;-65
2023/07/31 08:42:49;;;;;;;8.93;4.95;;;;;;;;;;5107342;28;20055;-66
2023/07/31 08:45:15;;;;;;;7.45;5.40;;;;;;;;;;5110622;28;20043;-66
2023/07/31 08:47:50;;;;;;;8.05;5.47;;;;;;;;;;5110959;28;20034;-66
2023/07/31 08:50:17;;;;;;;10.98;6.00;;;;;;;;;;5109535;28;20016;-66
2023/07/31 08:52:42;;;;;;;8.82;5.88;;;;;;;;;;5110842;28;20027;-65
2023/07/31 08:55:08;;;;;;;8.57;5.47;;;;;;;;;;5103378;28;20031;-65
2023/07/31 08:57:34;;;;;;;6.68;4.60;;;;;;;;;;5110912;28;20023;-66
2023/07/31 09:00:00;;;;;;;8.50;4.82;;;;;;;;;;5110954;28;20060;-66
2023/07/31 09:02:28;;;;;;;8.63;4.47;;;;;;;;;;5111314;28;20027;-66
2023/07/31 09:04:54;;;;;;;10.68;4.72;;;;;;;;;;5110491;28;20020;-68
2023/07/31 09:07:20;;;;;;;7.00;4.72;;;;;;;;;;5110955;28;20073;-65
2023/07/31 09:09:45;;;;;;;7.00;4.88;;;;;;;;;;5107467;28;20015;-66
2023/07/31 09:12:10;;;;;;;7.80;5.10;;;;;;;;;;5108280;28;20028;-65
2023/07/31 09:14:37;;;;;;;9.13;5.50;;;;;;;;;;5100402;28;20034;-66
2023/07/31 09:17:02;;;;;;;7.20;4.18;;;;;;;;;;5110418;28;20309;-66
2023/07/31 09:19:36;;;;;;;8.00;4.80;;;;;;;;;;5111298;28;20055;-66
2023/07/31 09:22:02;;;;;;;7.80;4.85;;;;;;;;;;5109069;28;20024;-65
2023/07/31 09:24:31;;;;;;;7.38;4.75;;;;;;;;;;5110828;28;20047;-65
2023/07/31 09:26:58;;;;;;;8.70;4.57;;;;;;;;;;5098888;28;20016;-65
2023/07/31 09:29:24;;;;;;;6.25;4.80;;;;;;;;;;5100886;28;20128;-66
2023/07/31 09:31:50;;;;;;;6.60;4.30;;;;;;;;;;5098416;28;20486;-66
2023/07/31 09:34:15;;;;;;;8.27;4.97;;;;;;;;;;5098993;28;20048;-67
2023/07/31 09:36:42;;;;;;;8.63;5.20;;;;;;;;;;5097595;28;20023;-65
2023/07/31 09:39:08;;;;;;;8.02;4.70;;;;;;;;;;5097358;28;20019;-66
2023/07/31 09:41:37;;;;;;;10.18;4.20;;;;;;;;;;5100267;28;20047;-66
2023/07/31 09:44:02;;;;;;;7.63;4.30;;;;;;;;;;5093827;28;20690;-65
2023/07/31 09:46:27;;;;;;;6.45;4.20;;;;;;;;;;5107528;28;20112;-65
2023/07/31 09:48:53;;;;;;;5.45;3.45;;;;;;;;;;5108200;28;20062;-66
2023/07/31 09:51:25;;;;;;;6.10;3.03;;;;;;;;;;5103744;28;20095;-66
2023/07/31 09:53:51;;;;;;;4.53;2.95;;;;;;;;;;5099291;28;20305;-66
2023/07/31 09:56:17;;;;;;;5.78;3.13;;;;;;;;;;5098177;28;20028;-66
2023/07/31 09:58:42;;;;;;;5.82;3.42;;;;;;;;;;5105634;28;20039;-65
2023/07/31 10:01:08;;;;;;;5.30;3.13;;;;;;;;;;5107844;28;20047;-66
2023/07/31 10:03:33;;;;;;;4.68;3.03;;;;;;;;;;5103822;28;20536;-66
2023/07/31 10:06:00;;;;;;;6.63;3.50;;;;;;;;;;5089636;28;20497;-66
2023/07/31 10:08:30;;;;;;;4.88;2.90;;;;;;;;;;5102063;28;20037;-66
2023/07/31 10:10:58;;;;;;;6.97;3.20;;;;;;;;;;5106978;28;20368;-66
2023/07/31 10:13:24;;;;;;;4.65;3.05;;;;;;;;;;5098165;28;20076;-67
2023/07/31 10:15:49;;;;;;;5.95;3.17;;;;;;;;;;5059019;28;20847;-67
2023/07/31 10:18:15;;;;;;;4.82;2.92;;;;;;;;;;5107397;28;20016;-66
2023/07/31 10:20:41;;;;;;;5.90;3.17;;;;;;;;;;5068653;28;20024;-66
2023/07/31 10:23:08;;;;;;;4.72;3.17;;;;;;;;;;5109092;28;20040;-67
2023/07/31 10:25:34;;;;;;;3.60;2.58;;;;;;;;;;5103835;28;20094;-66
2023/07/31 10:27:59;;;;;;;6.00;2.90;;;;;;;;;;5113869;28;20077;-67
2023/07/31 10:30:25;;;;;;;3.95;2.67;;;;;;;;;;5106935;28;20047;-66
2023/07/31 10:32:51;;;;;;;4.22;2.53;;;;;;;;;;5097514;28;20050;-66
2023/07/31 10:35:17;;;;;;;4.78;2.97;;;;;;;;;;5074972;28;20023;-73
2023/07/31 10:37:43;;;;;;;4.45;2.35;;;;;;;;;;5061260;28;20054;-72
2023/07/31 10:40:16;;;;;;;5.55;2.83;;;;;;;;;;5072030;28;20028;-72
2023/07/31 10:42:49;;;;;;;3.80;2.67;;;;;;;;;;5057045;28;20945;-68
2023/07/31 10:45:23;;;;;;;4.93;3.03;;;;;;;;;;5058599;28;20970;-69
2023/07/31 10:47:48;;;;;;;;;;;;;;;;;;5050792;28;20032;-67
2023/07/31 10:50:21;;;;;;;5.63;2.95;;;;;;;;;;5054269;28;19970;-66
2023/07/31 10:52:53;;;;;;;3.50;2.75;;;;;;;;;;5055565;28;20082;-66
2023/07/31 10:55:28;;;;;;;4.13;2.95;;;;;;;;;;5108945;28;20071;-64
2023/07/31 10:57:54;;;;;;;5.20;3.33;;;;;;;;;;5112925;28;20030;-67
2023/07/31 11:00:21;;;;;;;4.50;2.92;;;;;;;;;;5098480;28;20106;-67
2023/07/31 11:03:10;;;;;;;7.50;3.42;;;;;;;;;;5103746;28;20046;-66
2023/07/31 11:05:42;;;;;;;4.47;3.35;;;;;;;;;;5106707;28;20436;-65
2023/07/31 11:08:19;;;;;;;8.27;4.03;;;;;;;;;;5098407;28;20020;-66
2023/07/31 11:10:45;;;;;;;5.55;3.70;;;;;;;;;;5106555;28;20028;-66
2023/07/31 11:13:10;;;;;;;6.13;3.80;;;;;;;;;;5067269;28;20758;-65
2023/07/31 11:15:35;;;;;;;6.13;4.35;;;;;;;;;;5050358;28;20070;-65
2023/07/31 11:18:05;;;;;;;5.68;3.95;;;;;;;;;;5059689;28;20016;-66
2023/07/31 11:20:31;;;;;;;9.07;4.85;;;;;;;;;;5049062;28;20044;-64
2023/07/31 11:23:05;;;;;;;6.65;4.93;;;;;;;;;;5035428;28;20133;-64
2023/07/31 11:25:33;;;;;;;7.10;5.05;;;;;;;;;;5049647;28;20032;-65
2023/07/31 11:28:06;;;;;;;7.97;4.93;;;;;;;;;;5054268;28;20920;-64
2023/07/31 11:30:31;;;;;;;5.70;4.97;;;;;;;;;;5061738;28;20054;-63
2023/07/31 11:32:56;;;;;;;7.40;5.18;;;;;;;;;;5050963;28;20039;-64
2023/07/31 11:35:22;;;;;;;7.20;5.72;;;;;;;;;;5078809;28;20045;-64
2023/07/31 11:37:48;;;;;;;7.25;5.32;;;;;;;;;;5070583;28;20031;-64
2023/07/31 11:40:14;;;;;;;7.10;5.68;;;;;;;;;;5053219;28;20136;-64
2023/07/31 11:42:39;;;;;;;7.53;5.60;;;;;;;;;;5054069;28;20935;-65
2023/07/31 11:45:05;;;;;;;13.13;6.40;;;;;;;;;;5059835;28;20120;-65
2023/07/31 11:47:34;;;;;;;12.55;6.72;;;;;;;;;;5061199;28;20095;-65
2023/07/31 11:49:59;;;;;;;8.10;6.32;;;;;;;;;;5057495;28;20028;-64
2023/07/31 11:52:24;;;;;;;9.35;6.38;;;;;;;;;;5052689;28;20032;-63
2023/07/31 11:54:50;;;;;;;9.38;6.22;;;;;;;;;;5051722;28;20943;-65
2023/07/31 11:57:16;;;;;;;8.55;5.60;;;;;;;;;;5058041;28;20047;-67
2023/07/31 11:59:41;;;;;;;7.32;5.57;;;;;;;;;;5062682;28;20020;-66
2023/07/31 12:02:07;;;;;;;6.60;5.80;;;;;;;;;;5048885;28;20577;-68
2023/07/31 12:04:32;;;;;;;6.97;5.55;;;;;;;;;;5055528;28;20036;-67
2023/07/31 12:06:59;;;;;;;7.28;5.32;;;;;;;;;;5054218;28;20023;-65
2023/07/31 12:09:26;;;;;;;7.65;6.10;;;;;;;;;;5051035;28;20953;-66
2023/07/31 12:11:51;;;;;;;7.60;6.20;;;;;;;;;;5061245;28;20012;-65
2023/07/31 12:14:21;;;;;;;7.63;5.57;;;;;;;;;;5050986;28;20038;-65
2023/07/31 12:16:46;;;;;;;7.15;4.68;;;;;;;;;;5087318;28;20305;-66
2023/07/31 12:19:11;;;;;;;8.57;5.50;;;;;;;;;;5107852;28;20532;-66
2023/07/31 12:21:37;;;;;;;9.70;6.25;;;;;;;;;;5104696;28;20027;-66
2023/07/31 12:24:03;;;;;;;8.90;5.45;;;;;;;;;;5105937;28;20110;-68
2023/07/31 12:26:33;;;;;;;9.27;5.22;;;;;;;;;;5107371;28;20367;-66
2023/07/31 12:28:59;;;;;;;7.18;4.88;;;;;;;;;;5095814;28;20024;-66
2023/07/31 12:31:27;;;;;;;6.53;4.90;;;;;;;;;;5096831;28;20887;-65
2023/07/31 12:33:52;;;;;;;9.55;4.53;;;;;;;;;;5101162;28;20473;-67
2023/07/31 12:36:19;;;;;;;8.63;5.22;;;;;;;;;;5103499;28;20028;-67
2023/07/31 12:38:45;;;;;;;7.45;4.85;;;;;;;;;;5094118;28;20020;-65
2023/07/31 12:41:11;;;;;;;8.70;5.15;;;;;;;;;;5081236;28;20035;-65
2023/07/31 12:43:39;;;;;;;6.57;4.70;;;;;;;;;;5094258;28;20444;-65
2023/07/31 12:46:05;;;;;;;6.22;4.43;;;;;;;;;;5091782;28;20440;-66
2023/07/31 12:48:31;;;;;;;6.32;4.10;;;;;;;;;;5089836;28;20020;-65
2023/07/31 12:50:56;;;;;;;8.63;5.03;;;;;;;;;;5054990;28;20078;-65
2023/07/31 12:53:21;;;;;;;6.43;4.50;;;;;;;;;;5059151;28;20898;-64
2023/07/31 12:55:47;;;;;;;7.03;4.22;;;;;;;;;;5050165;28;20291;-66
2023/07/31 12:58:12;;;;;;;7.85;4.65;;;;;;;;;;5062716;28;20036;-66
2023/07/31 13:00:37;;;;;;;6.80;4.55;;;;;;;;;;5059757;28;21002;-65
2023/07/31 13:03:03;;;;;;;7.10;4.50;;;;;;;;;;5079779;28;20011;-65
2023/07/31 13:05:28;;;;;;;6.00;4.10;;;;;;;;;;5090972;28;20041;-68
2023/07/31 13:07:54;;;;;;;5.22;3.53;;;;;;;;;;5067643;28;20899;-68
2023/07/31 13:10:19;;;;;;;7.93;3.65;;;;;;;;;;5061836;28;20852;-67
2023/07/31 13:12:44;;;;;;;5.30;3.67;;;;;;;;;;5096729;28;20028;-68
2023/07/31 13:15:10;;;;;;;4.97;3.43;;;;;;;;;;5100899;28;20027;-68
2023/07/31 13:17:35;;;;;;;5.22;3.55;;;;;;;;;;5105635;28;20270;-69
2023/07/31 13:20:01;;;;;;;7.15;4.50;;;;;;;;;;5092165;28;20077;-68
2023/07/31 13:22:26;;;;;;;6.10;3.88;;;;;;;;;;5092728;28;20028;-68
2023/07/31 13:24:52;;;;;;;7.15;4.15;;;;;;;;;;5091824;28;20090;-68
2023/07/31 13:27:18;;;;;;;7.13;3.90;;;;;;;;;;5094783;28;20023;-67
2023/07/31 13:29:44;;;;;;;7.45;3.97;;;;;;;;;;5100161;28;20025;-68
2023/07/31 13:32:09;;;;;;;7.75;4.82;;;;;;;;;;5092529;28;20038;-68
2023/07/31 13:34:34;;;;;;;8.20;4.93;;;;;;;;;;5091553;28;20024;-69
2023/07/31 13:37:00;;;;;;;6.63;4.30;;;;;;;;;;5095561;28;20322;-68
2023/07/31 13:39:25;;;;;;;6.63;4.27;;;;;;;;;;5100600;28;20274;-68
2023/07/31 13:41:50;;;;;;;6.50;4.07;;;;;;;;;;5084629;28;21015;-69
2023/07/31 13:44:15;;;;;;;7.63;4.17;;;;;;;;;;5059147;28;20305;-69
2023/07/31 13:46:40;;;;;;;6.57;4.40;;;;;;;;;;5094723;28;20307;-68
2023/07/31 13:49:06;;;;;;;6.90;4.57;;;;;;;;;;5097575;28;20019;-67
2023/07/31 13:51:31;;;;;;;7.00;4.90;;;;;;;;;;5104799;28;21241;-68
2023/07/31 13:53:56;;;;;;;8.40;4.85;;;;;;;;;;5108157;28;20273;-67
2023/07/31 13:56:21;;;;;;;6.03;5.00;;;;;;;;;;5111263;28;20023;-68
2023/07/31 13:58:47;;;;;;;6.55;4.60;;;;;;;;;;5091429;28;20759;-68
2023/07/31 14:01:12;;;;;;;8.00;4.67;;;;;;;;;;5051384;28;20028;-69
2023/07/31 14:03:37;;;;;;;8.05;4.85;;;;;;;;;;5060652;28;20307;-67
2023/07/31 14:06:03;;;;;;;6.15;3.72;;;;;;;;;;5069573;28;21725;-68
2023/07/31 14:08:29;;;;;;;6.72;4.95;;;;;;;;;;5054260;28;20019;-69
2023/07/31 14:10:54;;;;;;;6.95;4.65;;;;;;;;;;5060074;28;20874;-67
2023/07/31 14:13:19;;;;;;;8.35;4.90;;;;;;;;;;5063138;28;20024;-67
2023/07/31 14:15:45;;;;;;;6.93;4.65;;;;;;;;;;5062059;28;20927;-68
2023/07/31 14:18:10;;;;;;;5.93;4.25;;;;;;;;;;5063671;28;20028;-68
2023/07/31 14:20:35;;;;;;;8.87;4.90;;;;;;;;;;5104123;28;20051;-67
2023/07/31 14:23:01;;;;;;;5.93;4.18;;;;;;;;;;5104910;28;20365;-65
2023/07/31 14:25:27;;;;;;;5.70;3.75;;;;;;;;;;5091678;28;20077;-67
2023/07/31 14:27:52;;;;;;;5.70;4.13;;;;;;;;;;5109077;28;20047;-68
2023/07/31 14:30:18;;;;;;;5.50;3.85;;;;;;;;;;5110997;28;20019;-66
2023/07/31 14:32:43;;;;;;;5.60;3.53;;;;;;;;;;5110859;28;20124;-65